Time;durP1;ratioP1;P1;durP2;ratioP2;P2;SDS_P1;SDS_P2;PMS_P1;PMS_P2;Temp;Humidity;BMP_temperature;BMP_pressure;BME280_temperature;BME280_humidity;BME280_pressure;Samples;Min_cycle;Max_cycle;Signal;HPM_P1;HPM_P2
2023/07/03 00:00:18;;;;;;;4.80;2.63;;;;;;;21.04;65.09;100459.59;20979096;28;20135;-68
2023/07/03 00:10:23;;;;;;;4.40;3.10;;;;;;;21.04;65.28;100454.19;20965338;28;20391;-68
2023/07/03 00:20:27;;;;;;;5.18;2.97;;;;;;;21.03;65.37;100454.34;20973891;28;20127;-68
2023/07/03 00:30:29;;;;;;;3.63;2.70;;;;;;;21.00;65.54;100448.25;20961165;28;20083;-68
2023/07/03 00:40:30;;;;;;;5.03;2.90;;;;;;;21.00;65.68;100432.03;20970296;28;20126;-68
2023/07/03 00:50:34;;;;;;;6.38;2.92;;;;;;;21.00;65.85;100431.19;20970854;28;20150;-68
2023/07/03 01:00:40;;;;;;;4.50;2.60;;;;;;;21.00;66.54;100423.91;20944163;28;20120;-68
2023/07/03 01:10:43;;;;;;;2.90;2.08;;;;;;;20.97;67.34;100426.09;20966357;28;20636;-68
2023/07/03 01:20:55;;;;;;;4.63;2.78;;;;;;;20.98;67.51;100414.25;20955300;28;20098;-68
2023/07/03 01:30:57;;;;;;;4.53;2.42;;;;;;;20.95;67.46;100412.75;20966232;28;20912;-68
2023/07/03 01:40:59;;;;;;;4.43;2.58;;;;;;;20.96;67.55;100410.88;20970451;28;20041;-68
2023/07/03 01:51:03;;;;;;;4.72;2.67;;;;;;;20.93;67.60;100403.94;20982758;28;20053;-68
2023/07/03 02:01:06;;;;;;;4.78;2.40;;;;;;;20.92;68.05;100396.84;20965197;28;20433;-68
2023/07/03 02:11:16;;;;;;;4.07;2.25;;;;;;;20.90;68.04;100389.91;20988745;28;20498;-68
2023/07/03 02:21:20;;;;;;;3.58;2.25;;;;;;;20.89;67.96;100386.38;20971834;28;20040;-68
2023/07/03 02:31:22;;;;;;;3.30;2.20;;;;;;;20.89;68.14;100375.53;20995447;28;20135;-68
2023/07/03 02:41:24;;;;;;;5.28;2.28;;;;;;;20.89;68.18;100393.63;20968000;28;20045;-68
2023/07/03 02:51:25;;;;;;;3.63;1.92;;;;;;;20.87;68.59;100380.28;20992040;28;20049;-68
2023/07/03 03:01:31;;;;;;;4.13;2.40;;;;;;;20.81;68.46;100383.66;20971977;28;20410;-68
2023/07/03 03:11:34;;;;;;;5.75;2.58;;;;;;;20.86;68.52;100375.88;20961615;28;20048;-68
2023/07/03 03:21:38;;;;;;;4.13;2.25;;;;;;;20.84;68.96;100367.91;20949462;28;20060;-68
2023/07/03 03:31:40;;;;;;;5.45;2.42;;;;;;;20.84;68.92;100367.09;20956174;28;20510;-68
2023/07/03 03:41:42;;;;;;;6.97;2.50;;;;;;;20.83;69.29;100371.66;20954392;28;20049;-68
2023/07/03 03:51:45;;;;;;;4.28;2.42;;;;;;;20.83;69.28;100384.34;20967105;28;20049;-68
2023/07/03 04:01:49;;;;;;;5.07;2.30;;;;;;;20.82;69.78;100396.19;21030609;28;20048;-68
2023/07/03 04:11:50;;;;;;;5.07;2.70;;;;;;;20.81;70.02;100389.06;21069259;28;20071;-68
2023/07/03 04:21:52;;;;;;;5.43;2.53;;;;;;;20.80;70.71;100392.78;21073401;28;20101;-68
2023/07/03 04:31:54;;;;;;;5.88;2.70;;;;;;;20.80;71.01;100393.63;21071619;28;20048;-68
2023/07/03 04:41:59;;;;;;;5.47;2.30;;;;;;;20.80;71.21;100403.63;21069923;28;20438;-68
2023/07/03 04:52:01;;;;;;;4.78;2.10;;;;;;;20.78;70.93;100414.56;20990002;28;20118;-67
2023/07/03 05:02:03;;;;;;;3.78;2.03;;;;;;;20.79;70.76;100410.03;21033373;28;20080;-67
2023/07/03 05:12:05;;;;;;;4.03;2.10;;;;;;;20.77;70.87;100410.16;21049998;28;20605;-67
2023/07/03 05:22:07;;;;;;;3.42;1.83;;;;;;;20.75;70.23;100416.75;21066456;28;20168;-67
2023/07/03 05:32:08;;;;;;;3.00;1.60;;;;;;;20.76;69.31;100423.84;20958724;28;20478;-68
2023/07/03 05:42:10;;;;;;;3.17;1.65;;;;;;;20.78;68.83;100424.53;20950010;28;20739;-67
2023/07/03 05:52:12;;;;;;;3.72;1.73;;;;;;;20.80;68.57;100433.38;20930159;28;20132;-68
2023/07/03 06:02:14;;;;;;;3.05;2.13;;;;;;;20.80;68.43;100431.50;20947316;28;20158;-67
2023/07/03 06:12:16;;;;;;;3.80;1.48;;;;;;;20.82;68.35;100434.88;20956126;28;20084;-67
2023/07/03 06:22:18;;;;;;;3.67;1.65;;;;;;;20.83;68.08;100446.56;20951782;28;20566;-67
2023/07/03 06:32:19;;;;;;;2.15;1.20;;;;;;;20.83;67.80;100447.38;20980465;28;20064;-67
2023/07/03 06:42:21;;;;;;;2.58;1.38;;;;;;;20.84;67.57;100442.84;20994692;28;20044;-67
2023/07/03 06:52:33;;;;;;;3.22;1.35;;;;;;;20.84;67.25;100445.56;20989383;28;20052;-67
2023/07/03 07:02:35;;;;;;;1.92;1.15;;;;;;;20.84;66.90;100440.13;21062928;28;20047;-67
2023/07/03 07:12:37;;;;;;;3.05;1.75;;;;;;;20.85;66.80;100455.34;21077489;28;20048;-68
2023/07/03 07:22:38;;;;;;;2.08;1.30;;;;;;;20.90;66.65;100444.00;20978681;28;20185;-67
2023/07/03 07:32:40;;;;;;;3.53;1.70;;;;;;;20.98;66.59;100460.25;20986754;28;20053;-67
2023/07/03 07:42:42;;;;;;;2.60;1.10;;;;;;;21.08;66.48;100470.94;20990884;28;20063;-66
2023/07/03 07:52:43;;;;;;;3.42;1.08;;;;;;;21.14;66.06;100456.72;20992090;28;20552;-67
2023/07/03 08:02:45;;;;;;;3.45;1.48;;;;;;;21.19;65.77;100472.47;21074239;28;20105;-66
2023/07/03 08:12:47;;;;;;;4.55;1.67;;;;;;;21.23;64.81;100469.25;21073454;28;20055;-66
2023/07/03 08:22:49;;;;;;;3.70;1.48;;;;;;;21.28;65.25;100472.31;21037869;28;20092;-66
2023/07/03 08:32:50;;;;;;;2.70;1.00;;;;;;;21.75;64.73;100486.16;20967037;28;20328;-66
2023/07/03 08:42:57;;;;;;;4.18;0.98;;;;;;;22.22;62.28;100472.81;20964803;28;20051;-67
2023/07/03 08:53:03;;;;;;;3.78;1.30;;;;;;;22.07;61.72;100503.34;20936692;28;20044;-67
2023/07/03 09:03:29;;;;;;;3.38;1.23;;;;;;;21.82;62.30;100514.25;20939916;28;20124;-67
2023/07/03 09:13:37;;;;;;;2.17;0.80;;;;;;;21.61;62.95;100525.59;20939004;28;20528;-67
2023/07/03 09:23:44;;;;;;;1.95;0.90;;;;;;;21.54;63.72;100538.97;20941126;28;20426;-67
2023/07/03 09:33:46;;;;;;;1.45;0.90;;;;;;;21.50;64.78;100536.78;20932742;28;20045;-66
2023/07/03 09:43:48;;;;;;;2.53;1.00;;;;;;;21.47;65.41;100537.94;20929883;28;20127;-67
2023/07/03 09:53:50;;;;;;;1.75;0.70;;;;;;;21.49;66.04;100530.50;20934459;28;20807;-67
2023/07/03 10:04:05;;;;;;;1.20;0.60;;;;;;;21.52;66.01;100540.16;20915023;28;20517;-67
2023/07/03 10:14:32;;;;;;;2.45;0.70;;;;;;;21.55;65.78;100535.25;20949159;28;21195;-67
2023/07/03 10:24:35;;;;;;;1.85;0.70;;;;;;;21.58;65.12;100545.72;20955921;28;20427;-67
2023/07/03 10:35:01;;;;;;;2.40;0.80;;;;;;;21.59;64.41;100544.72;20938660;28;20052;-67
2023/07/03 10:45:13;;;;;;;2.15;0.75;;;;;;;21.59;63.38;100562.84;20932175;28;20048;-67
2023/07/03 10:55:18;;;;;;;2.72;0.93;;;;;;;21.58;62.97;100559.28;20931639;28;20132;-67
2023/07/03 11:05:22;;;;;;;2.17;0.70;;;;;;;21.58;63.01;100543.03;20945816;28;20402;-67
2023/07/03 11:15:33;;;;;;;1.77;0.80;;;;;;;21.63;62.84;100566.03;20938374;28;20044;-67
2023/07/03 11:25:42;;;;;;;1.85;0.65;;;;;;;21.61;62.27;100589.75;20937283;28;20068;-66
2023/07/03 11:36:04;;;;;;;1.30;0.60;;;;;;;21.58;62.16;100593.66;20959129;28;20289;-67
2023/07/03 11:46:10;;;;;;;2.03;0.63;;;;;;;21.58;62.18;100580.13;20954142;28;20452;-67
2023/07/03 11:56:35;;;;;;;1.45;0.77;;;;;;;21.66;61.67;100579.31;20952423;28;20106;-67
2023/07/03 12:06:42;;;;;;;2.78;0.80;;;;;;;21.69;61.59;100587.94;20922386;28;20053;-66
2023/07/03 12:16:47;;;;;;;0.85;0.43;;;;;;;21.72;61.49;100581.34;20937023;28;20587;-66
2023/07/03 12:26:55;;;;;;;1.45;0.55;;;;;;;21.74;61.16;100590.16;20923679;28;20080;-66
2023/07/03 12:37:02;;;;;;;1.38;0.50;;;;;;;21.77;60.92;100583.53;20932241;28;20517;-66
2023/07/03 12:47:09;;;;;;;1.38;0.60;;;;;;;21.77;60.82;100581.69;20936165;28;20079;-66
2023/07/03 12:57:10;;;;;;;1.55;0.55;;;;;;;21.77;60.56;100597.94;20936199;28;20144;-66
2023/07/03 13:07:12;;;;;;;0.63;0.50;;;;;;;21.75;60.43;100608.09;20946620;28;20502;-66
2023/07/03 13:17:25;;;;;;;0.70;0.55;;;;;;;21.75;60.46;100604.53;20935723;28;20052;-66
2023/07/03 13:27:27;;;;;;;1.52;0.80;;;;;;;21.74;60.40;100598.28;20946189;28;20037;-66
2023/07/03 13:37:33;;;;;;;1.42;0.43;;;;;;;21.71;60.09;100598.59;20932235;28;20040;-66
2023/07/03 13:47:35;;;;;;;1.60;0.65;;;;;;;21.70;59.96;100621.31;20938241;28;20079;-66
2023/07/03 13:57:37;;;;;;;1.42;0.50;;;;;;;21.68;59.95;100628.75;20913660;28;20092;-65
2023/07/03 14:07:38;;;;;;;0.47;0.40;;;;;;;21.68;60.65;100636.88;20898814;28;20052;-64
2023/07/03 14:17:40;;;;;;;0.60;0.40;;;;;;;21.67;60.83;100635.19;20920699;28;20229;-64
2023/07/03 14:27:42;;;;;;;1.17;0.43;;;;;;;21.64;60.94;100666.16;20920953;28;20760;-65
2023/07/03 14:37:43;;;;;;;0.98;0.57;;;;;;;21.61;60.81;100644.78;20930648;28;20490;-65
2023/07/03 14:47:45;;;;;;;1.63;0.50;;;;;;;21.61;61.12;100665.59;20918582;28;20052;-65
2023/07/03 14:57:47;;;;;;;1.73;0.65;;;;;;;21.64;61.31;100649.03;20926376;28;20057;-65
2023/07/03 15:07:49;;;;;;;0.55;0.40;;;;;;;21.65;61.44;100638.03;20935827;28;20106;-65
2023/07/03 15:17:53;;;;;;;2.85;0.98;;;;;;;21.61;61.66;100639.38;20921349;28;20506;-67
2023/07/03 15:27:55;;;;;;;2.45;0.75;;;;;;;21.56;61.97;100625.47;20921965;28;20147;-68
2023/07/03 15:37:57;;;;;;;10.00;2.10;;;;;;;21.61;64.00;100611.41;20927196;28;20053;-73
2023/07/03 15:47:59;;;;;;;3.55;1.30;;;;;;;21.68;66.32;100607.06;20924239;28;20075;-71
2023/07/03 15:58:01;;;;;;;2.30;1.10;;;;;;;21.72;66.88;100601.13;20915165;28;20057;-68
2023/07/03 16:08:02;;;;;;;3.50;1.48;;;;;;;21.77;67.22;100588.94;20938011;28;20502;-70
2023/07/03 16:18:04;;;;;;;3.75;1.30;;;;;;;21.79;67.92;100582.34;20886756;28;20399;-69
2023/07/03 16:28:06;;;;;;;2.05;1.05;;;;;;;21.82;69.97;100568.47;20897089;28;20045;-71
2023/07/03 16:38:07;;;;;;;0.93;0.73;;;;;;;21.78;70.05;100558.97;20887883;28;20422;-72
2023/07/03 16:48:09;;;;;;;3.70;1.05;;;;;;;21.77;68.88;100562.72;20959755;28;20040;-69
2023/07/03 16:58:11;;;;;;;3.30;1.17;;;;;;;21.73;68.59;100559.47;20975890;28;20540;-69
2023/07/03 17:08:12;;;;;;;1.85;1.00;;;;;;;21.71;67.93;100547.13;20955625;28;20048;-67
2023/07/03 17:18:14;;;;;;;4.35;1.10;;;;;;;21.66;67.02;100535.97;20944495;28;20047;-68
2023/07/03 17:28:16;;;;;;;1.80;0.90;;;;;;;21.65;67.13;100531.53;21009676;28;20044;-67
2023/07/03 17:38:18;;;;;;;1.67;0.70;;;;;;;21.61;66.53;100525.59;21026461;28;20040;-68
2023/07/03 17:48:20;;;;;;;2.70;1.00;;;;;;;21.57;65.84;100514.25;21009404;28;20160;-68
2023/07/03 17:58:21;;;;;;;2.22;0.90;;;;;;;21.56;65.70;100515.25;20924003;28;20045;-67
2023/07/03 18:08:23;;;;;;;2.22;0.90;;;;;;;21.55;65.54;100510.88;20963945;28;20075;-68
2023/07/03 18:18:25;;;;;;;3.03;1.00;;;;;;;21.53;65.42;100480.41;20958618;28;20052;-67
2023/07/03 18:28:27;;;;;;;7.28;3.72;;;;;;;21.55;66.08;100470.22;20919276;28;20083;-68
2023/07/03 18:38:30;;;;;;;6.40;2.45;;;;;;;21.54;64.42;100470.44;20969303;28;20062;-67
2023/07/03 18:48:31;;;;;;;6.47;3.08;;;;;;;21.50;64.71;100448.25;20952423;28;20410;-67
2023/07/03 18:58:33;;;;;;;5.10;2.40;;;;;;;21.48;64.44;100439.44;20959191;28;20041;-67
2023/07/03 19:08:36;;;;;;;7.55;2.75;;;;;;;21.46;64.20;100429.81;20976129;28;20048;-67
2023/07/03 19:18:39;;;;;;;6.35;2.50;;;;;;;21.43;64.38;100453.50;20978386;28;20120;-67
2023/07/03 19:28:43;;;;;;;4.70;2.10;;;;;;;21.43;65.11;100474.31;20967018;28;20063;-68
2023/07/03 19:38:46;;;;;;;4.45;2.20;;;;;;;21.37;67.03;100456.03;20973063;28;20102;-67
2023/07/03 19:48:48;;;;;;;4.93;2.05;;;;;;;21.46;68.62;100475.84;20981546;28;20324;-67
2023/07/03 19:58:49;;;;;;;4.03;2.20;;;;;;;21.44;69.48;100486.84;20967372;28;20061;-67
2023/07/03 20:08:53;;;;;;;4.25;2.00;;;;;;;21.43;69.87;100479.72;20952606;28;20044;-67
2023/07/03 20:18:55;;;;;;;4.33;2.20;;;;;;;21.40;70.13;100463.81;20970945;28;20051;-67
2023/07/03 20:28:57;;;;;;;4.43;2.33;;;;;;;21.39;70.16;100473.78;20958353;28;20131;-67
2023/07/03 20:38:59;;;;;;;4.15;2.00;;;;;;;21.37;70.19;100464.16;20961063;28;20049;-67
2023/07/03 20:49:00;;;;;;;4.60;2.25;;;;;;;21.26;70.35;100477.03;20986561;28;20537;-67
2023/07/03 20:59:02;;;;;;;4.63;1.92;;;;;;;21.34;70.40;100480.75;20984693;28;20055;-67
2023/07/03 21:09:04;;;;;;;2.65;1.70;;;;;;;21.33;70.34;100484.47;20983656;28;20147;-67
2023/07/03 21:19:07;;;;;;;2.58;1.38;;;;;;;21.32;70.43;100486.31;20985456;28;20059;-67
2023/07/03 21:29:09;;;;;;;2.55;1.45;;;;;;;21.34;70.93;100475.34;20984384;28;20044;-67
2023/07/03 21:39:11;;;;;;;3.10;1.42;;;;;;;21.33;71.72;100470.94;21041311;28;20054;-67
2023/07/03 21:49:15;;;;;;;2.22;1.30;;;;;;;21.33;71.33;100470.94;21067466;28;20052;-67
2023/07/03 21:59:17;;;;;;;3.05;1.50;;;;;;;21.30;71.45;100454.03;21066244;28;20071;-67
2023/07/03 22:09:18;;;;;;;2.90;1.20;;;;;;;21.29;70.99;100454.19;21076257;28;20531;-67
2023/07/03 22:19:38;;;;;;;3.35;1.70;;;;;;;21.27;71.06;100470.63;21083470;28;20079;-67
2023/07/03 22:29:41;;;;;;;3.38;1.48;;;;;;;21.25;70.85;100472.66;20998034;28;20505;-67
2023/07/03 22:39:43;;;;;;;2.28;1.20;;;;;;;21.25;70.78;100491.59;20999645;28;20052;-67
2023/07/03 22:49:47;;;;;;;3.25;1.52;;;;;;;21.23;70.74;100493.63;20974614;28;20059;-67
2023/07/03 22:59:49;;;;;;;2.70;1.30;;;;;;;21.20;70.64;100503.94;20968630;28;20052;-67
2023/07/03 23:09:50;;;;;;;1.85;1.05;;;;;;;21.15;70.52;100508.00;20965139;28;20474;-67
2023/07/03 23:19:55;;;;;;;2.28;1.30;;;;;;;21.14;70.55;100521.69;20956667;28;20059;-67
2023/07/03 23:29:56;;;;;;;2.78;1.35;;;;;;;21.13;70.61;100522.69;20980577;28;20466;-67
2023/07/03 23:39:58;;;;;;;2.22;1.23;;;;;;;21.11;70.61;100535.53;20947151;28;20053;-67
2023/07/03 23:50:03;;;;;;;2.80;1.20;;;;;;;21.03;70.70;100527.41;20945763;28;20052;-67
